sensor_id;sensor_type;location;lat;lon;timestamp;pressure;altitude;pressure_sealevel;temperature;humidity
40946;BME280;55635;50.264;11.918;2023-02-10T00:00:46;97243.44;;;-2.39;68.04
40946;BME280;55635;50.264;11.918;2023-02-10T00:03:27;97241.56;;;-2.36;67.98
40946;BME280;55635;50.264;11.918;2023-02-10T00:06:10;97240.44;;;-2.50;68.84
40946;BME280;55635;50.264;11.918;2023-02-10T00:08:55;97226.25;;;-2.42;68.24
40946;BME280;55635;50.264;11.918;2023-02-10T00:11:36;97234.38;;;-2.69;68.76
40946;BME280;55635;50.264;11.918;2023-02-10T00:14:35;97223.78;;;-2.65;69.78
40946;BME280;55635;50.264;11.918;2023-02-10T00:17:16;97234.81;;;-2.80;69.37
40946;BME280;55635;50.264;11.918;2023-02-10T00:19:58;97232.31;;;-2.82;69.27
40946;BME280;55635;50.264;11.918;2023-02-10T00:22:39;97250.97;;;-2.73;69.84
40946;BME280;55635;50.264;11.918;2023-02-10T00:25:21;97245.28;;;-2.61;70.38
40946;BME280;55635;50.264;11.918;2023-02-10T00:28:02;97243.84;;;-2.48;70.03
40946;BME280;55635;50.264;11.918;2023-02-10T00:30:44;97253.16;;;-2.44;70.54
40946;BME280;55635;50.264;11.918;2023-02-10T00:33:25;97255.00;;;-2.46;70.48
40946;BME280;55635;50.264;11.918;2023-02-10T00:36:11;97252.50;;;-2.29;70.48
40946;BME280;55635;50.264;11.918;2023-02-10T00:38:53;97251.72;;;-2.31;70.17
40946;BME280;55635;50.264;11.918;2023-02-10T00:41:34;97253.69;;;-2.56;70.55
40946;BME280;55635;50.264;11.918;2023-02-10T00:44:17;97264.41;;;-2.44;71.15
40946;BME280;55635;50.264;11.918;2023-02-10T00:46:58;97259.34;;;-2.47;70.45
40946;BME280;55635;50.264;11.918;2023-02-10T00:49:40;97266.00;;;-2.21;70.10
40946;BME280;55635;50.264;11.918;2023-02-10T00:52:23;97258.53;;;-2.08;68.83
40946;BME280;55635;50.264;11.918;2023-02-10T00:55:04;97263.59;;;-2.05;68.13
40946;BME280;55635;50.264;11.918;2023-02-10T00:57:45;97260.59;;;-1.96;68.18
40946;BME280;55635;50.264;11.918;2023-02-10T01:00:26;97260.50;;;-1.95;68.37
40946;BME280;55635;50.264;11.918;2023-02-10T01:03:07;97264.66;;;-1.91;66.86
40946;BME280;55635;50.264;11.918;2023-02-10T01:05:49;97271.97;;;-1.99;67.40
40946;BME280;55635;50.264;11.918;2023-02-10T01:08:30;97267.28;;;-2.11;68.44
40946;BME280;55635;50.264;11.918;2023-02-10T01:11:12;97266.81;;;-2.00;68.76
40946;BME280;55635;50.264;11.918;2023-02-10T01:13:53;97268.13;;;-2.10;68.16
40946;BME280;55635;50.264;11.918;2023-02-10T01:16:35;97268.22;;;-2.12;68.69
40946;BME280;55635;50.264;11.918;2023-02-10T01:19:16;97287.56;;;-1.99;67.74
40946;BME280;55635;50.264;11.918;2023-02-10T01:21:58;97288.31;;;-2.17;69.35
40946;BME280;55635;50.264;11.918;2023-02-10T01:24:39;97292.50;;;-2.13;69.07
40946;BME280;55635;50.264;11.918;2023-02-10T01:27:20;97284.13;;;-2.20;68.60
40946;BME280;55635;50.264;11.918;2023-02-10T01:30:01;97284.97;;;-2.19;69.33
40946;BME280;55635;50.264;11.918;2023-02-10T01:32:43;97297.84;;;-2.36;69.75
40946;BME280;55635;50.264;11.918;2023-02-10T01:35:24;97295.75;;;-2.28;69.64
40946;BME280;55635;50.264;11.918;2023-02-10T01:38:07;97283.91;;;-2.54;70.50
40946;BME280;55635;50.264;11.918;2023-02-10T01:40:49;97280.66;;;-2.20;69.26
40946;BME280;55635;50.264;11.918;2023-02-10T01:43:30;97283.09;;;-2.36;70.01
40946;BME280;55635;50.264;11.918;2023-02-10T01:46:12;97299.19;;;-2.28;69.92
40946;BME280;55635;50.264;11.918;2023-02-10T01:48:55;97287.81;;;-2.25;69.30
40946;BME280;55635;50.264;11.918;2023-02-10T01:51:44;97293.66;;;-2.20;69.14
40946;BME280;55635;50.264;11.918;2023-02-10T01:57:24;97287.31;;;-2.33;71.03
40946;BME280;55635;50.264;11.918;2023-02-10T02:00:07;97275.81;;;-2.28;70.68
40946;BME280;55635;50.264;11.918;2023-02-10T02:02:54;97290.03;;;-2.16;70.34
40946;BME280;55635;50.264;11.918;2023-02-10T02:05:41;97281.66;;;-2.23;70.08
40946;BME280;55635;50.264;11.918;2023-02-10T02:08:25;97281.47;;;-2.18;69.18
40946;BME280;55635;50.264;11.918;2023-02-10T02:11:20;97286.13;;;-2.26;70.12
40946;BME280;55635;50.264;11.918;2023-02-10T02:17:37;97292.25;;;-2.27;70.68
40946;BME280;55635;50.264;11.918;2023-02-10T02:32:57;97283.19;;;-2.57;73.13
40946;BME280;55635;50.264;11.918;2023-02-10T02:35:55;97292.72;;;-2.58;73.27
40946;BME280;55635;50.264;11.918;2023-02-10T02:38:42;97293.88;;;-2.45;72.63
40946;BME280;55635;50.264;11.918;2023-02-10T02:41:24;97280.56;;;-2.37;70.22
40946;BME280;55635;50.264;11.918;2023-02-10T02:44:07;97289.25;;;-2.18;71.58
40946;BME280;55635;50.264;11.918;2023-02-10T02:47:03;97291.91;;;-1.99;70.89
40946;BME280;55635;50.264;11.918;2023-02-10T02:50:08;97297.41;;;-1.87;70.19
40946;BME280;55635;50.264;11.918;2023-02-10T02:59:25;97278.59;;;-2.32;70.21
40946;BME280;55635;50.264;11.918;2023-02-10T03:02:13;97292.25;;;-2.27;70.16
40946;BME280;55635;50.264;11.918;2023-02-10T03:04:55;97279.13;;;-2.44;70.09
40946;BME280;55635;50.264;11.918;2023-02-10T03:07:39;97277.25;;;-2.61;71.70
40946;BME280;55635;50.264;11.918;2023-02-10T03:10:21;97286.16;;;-2.46;70.50
40946;BME280;55635;50.264;11.918;2023-02-10T03:13:02;97286.28;;;-2.49;71.51
40946;BME280;55635;50.264;11.918;2023-02-10T03:15:44;97294.41;;;-2.57;71.64
40946;BME280;55635;50.264;11.918;2023-02-10T03:18:25;97288.28;;;-2.56;71.85
40946;BME280;55635;50.264;11.918;2023-02-10T03:21:07;97291.88;;;-2.58;71.99
40946;BME280;55635;50.264;11.918;2023-02-10T03:23:48;97295.13;;;-2.75;73.22
40946;BME280;55635;50.264;11.918;2023-02-10T03:26:29;97281.06;;;-2.90;75.17
40946;BME280;55635;50.264;11.918;2023-02-10T03:29:13;97282.16;;;-2.95;76.65
40946;BME280;55635;50.264;11.918;2023-02-10T03:31:54;97292.09;;;-2.85;77.62
40946;BME280;55635;50.264;11.918;2023-02-10T03:34:35;97291.81;;;-2.99;77.28
40946;BME280;55635;50.264;11.918;2023-02-10T03:37:16;97296.25;;;-2.81;77.13
40946;BME280;55635;50.264;11.918;2023-02-10T03:39:57;97302.81;;;-2.72;76.38
40946;BME280;55635;50.264;11.918;2023-02-10T03:42:38;97305.88;;;-2.62;76.01
40946;BME280;55635;50.264;11.918;2023-02-10T03:45:20;97301.91;;;-2.71;75.14
40946;BME280;55635;50.264;11.918;2023-02-10T03:48:01;97300.03;;;-2.88;74.56
40946;BME280;55635;50.264;11.918;2023-02-10T03:50:43;97308.44;;;-2.83;74.59
40946;BME280;55635;50.264;11.918;2023-02-10T03:53:25;97303.47;;;-3.09;76.22
40946;BME280;55635;50.264;11.918;2023-02-10T03:56:07;97307.97;;;-2.92;76.52
40946;BME280;55635;50.264;11.918;2023-02-10T03:58:48;97309.13;;;-2.99;76.68
40946;BME280;55635;50.264;11.918;2023-02-10T04:01:29;97315.00;;;-2.74;75.68
40946;BME280;55635;50.264;11.918;2023-02-10T04:04:11;97316.41;;;-2.25;73.72
40946;BME280;55635;50.264;11.918;2023-02-10T04:06:51;97303.63;;;-2.30;73.04
40946;BME280;55635;50.264;11.918;2023-02-10T04:09:33;97314.00;;;-2.30;72.18
40946;BME280;55635;50.264;11.918;2023-02-10T04:12:14;97311.34;;;-2.28;72.64
40946;BME280;55635;50.264;11.918;2023-02-10T04:14:55;97316.47;;;-2.47;74.22
40946;BME280;55635;50.264;11.918;2023-02-10T04:17:36;97323.78;;;-2.56;75.72
40946;BME280;55635;50.264;11.918;2023-02-10T04:20:17;97335.59;;;-2.29;75.41
40946;BME280;55635;50.264;11.918;2023-02-10T04:22:59;97323.59;;;-2.32;75.46
40946;BME280;55635;50.264;11.918;2023-02-10T04:25:40;97338.88;;;-2.24;75.55
40946;BME280;55635;50.264;11.918;2023-02-10T04:28:21;97337.38;;;-2.09;75.12
40946;BME280;55635;50.264;11.918;2023-02-10T04:31:02;97326.38;;;-2.16;75.19
40946;BME280;55635;50.264;11.918;2023-02-10T04:33:46;97341.13;;;-1.96;75.54
40946;BME280;55635;50.264;11.918;2023-02-10T04:36:27;97346.91;;;-2.10;75.98
40946;BME280;55635;50.264;11.918;2023-02-10T04:39:08;97350.22;;;-2.06;76.72
40946;BME280;55635;50.264;11.918;2023-02-10T04:41:50;97347.41;;;-1.82;76.00
40946;BME280;55635;50.264;11.918;2023-02-10T04:44:31;97347.91;;;-1.74;76.34
40946;BME280;55635;50.264;11.918;2023-02-10T04:47:12;97326.31;;;-1.94;76.25
40946;BME280;55635;50.264;11.918;2023-02-10T04:49:54;97343.66;;;-1.95;76.71
40946;BME280;55635;50.264;11.918;2023-02-10T04:52:35;97344.09;;;-1.85;76.86
40946;BME280;55635;50.264;11.918;2023-02-10T04:55:16;97341.94;;;-1.76;76.63
40946;BME280;55635;50.264;11.918;2023-02-10T04:57:57;97337.16;;;-1.85;77.23
40946;BME280;55635;50.264;11.918;2023-02-10T05:00:39;97342.09;;;-2.19;78.27
40946;BME280;55635;50.264;11.918;2023-02-10T05:03:20;97346.91;;;-2.10;78.51
40946;BME280;55635;50.264;11.918;2023-02-10T05:06:10;97347.19;;;-1.96;78.18
40946;BME280;55635;50.264;11.918;2023-02-10T05:08:51;97355.47;;;-2.08;78.68
40946;BME280;55635;50.264;11.918;2023-02-10T05:11:32;97356.72;;;-1.96;78.23
40946;BME280;55635;50.264;11.918;2023-02-10T05:14:13;97369.59;;;-1.93;78.03
40946;BME280;55635;50.264;11.918;2023-02-10T05:16:54;97362.38;;;-1.68;77.91
40946;BME280;55635;50.264;11.918;2023-02-10T05:19:35;97372.59;;;-1.63;77.88
40946;BME280;55635;50.264;11.918;2023-02-10T05:22:16;97367.16;;;-1.59;77.35
40946;BME280;55635;50.264;11.918;2023-02-10T05:24:57;97369.09;;;-1.62;76.87
40946;BME280;55635;50.264;11.918;2023-02-10T05:27:39;97379.34;;;-1.59;77.37
40946;BME280;55635;50.264;11.918;2023-02-10T05:30:20;97362.81;;;-1.97;78.20
40946;BME280;55635;50.264;11.918;2023-02-10T05:33:01;97379.31;;;-1.78;79.19
40946;BME280;55635;50.264;11.918;2023-02-10T05:35:42;97376.97;;;-1.84;79.04
40946;BME280;55635;50.264;11.918;2023-02-10T05:38:23;97365.75;;;-2.05;78.86
40946;BME280;55635;50.264;11.918;2023-02-10T05:41:04;97377.44;;;-1.75;78.86
40946;BME280;55635;50.264;11.918;2023-02-10T05:43:45;97381.59;;;-1.91;78.76
40946;BME280;55635;50.264;11.918;2023-02-10T05:46:26;97390.16;;;-1.69;78.68
40946;BME280;55635;50.264;11.918;2023-02-10T05:49:07;97392.13;;;-1.55;79.04
40946;BME280;55635;50.264;11.918;2023-02-10T05:51:48;97374.00;;;-1.56;77.72
40946;BME280;55635;50.264;11.918;2023-02-10T05:54:29;97385.53;;;-1.25;76.95
40946;BME280;55635;50.264;11.918;2023-02-10T05:57:11;97384.97;;;-1.13;76.29
40946;BME280;55635;50.264;11.918;2023-02-10T05:59:52;97380.72;;;-1.32;77.69
40946;BME280;55635;50.264;11.918;2023-02-10T06:02:33;97385.22;;;-1.17;77.83
40946;BME280;55635;50.264;11.918;2023-02-10T06:05:15;97389.34;;;-1.50;78.81
40946;BME280;55635;50.264;11.918;2023-02-10T06:07:56;97386.88;;;-1.53;78.75
40946;BME280;55635;50.264;11.918;2023-02-10T06:10:37;97391.50;;;-1.60;79.31
40946;BME280;55635;50.264;11.918;2023-02-10T06:13:18;97397.72;;;-1.64;79.08
40946;BME280;55635;50.264;11.918;2023-02-10T06:15:59;97397.72;;;-1.64;78.84
40946;BME280;55635;50.264;11.918;2023-02-10T06:18:42;97418.00;;;-1.52;78.94
40946;BME280;55635;50.264;11.918;2023-02-10T06:21:23;97408.63;;;-1.36;78.98
40946;BME280;55635;50.264;11.918;2023-02-10T06:24:04;97407.91;;;-1.39;78.96
40946;BME280;55635;50.264;11.918;2023-02-10T06:26:45;97409.59;;;-1.38;78.78
40946;BME280;55635;50.264;11.918;2023-02-10T06:29:26;97419.06;;;-1.37;79.16
40946;BME280;55635;50.264;11.918;2023-02-10T06:32:07;97425.84;;;-1.33;78.73
40946;BME280;55635;50.264;11.918;2023-02-10T06:34:48;97419.19;;;-1.20;78.50
40946;BME280;55635;50.264;11.918;2023-02-10T06:37:30;97423.44;;;-1.19;78.21
40946;BME280;55635;50.264;11.918;2023-02-10T06:40:11;97419.66;;;-1.31;78.50
40946;BME280;55635;50.264;11.918;2023-02-10T06:42:52;97422.38;;;-1.34;77.98
40946;BME280;55635;50.264;11.918;2023-02-10T06:45:33;97424.00;;;-1.31;79.35
40946;BME280;55635;50.264;11.918;2023-02-10T06:48:21;97418.03;;;-1.33;79.71
40946;BME280;55635;50.264;11.918;2023-02-10T06:51:02;97435.34;;;-1.32;79.73
40946;BME280;55635;50.264;11.918;2023-02-10T06:53:43;97428.47;;;-1.53;80.28
40946;BME280;55635;50.264;11.918;2023-02-10T06:56:25;97421.25;;;-1.28;80.17
40946;BME280;55635;50.264;11.918;2023-02-10T06:59:06;97409.75;;;-1.41;80.59
40946;BME280;55635;50.264;11.918;2023-02-10T07:01:47;97424.81;;;-1.49;79.98
40946;BME280;55635;50.264;11.918;2023-02-10T07:04:29;97427.50;;;-1.51;80.49
40946;BME280;55635;50.264;11.918;2023-02-10T07:07:10;97439.16;;;-1.59;81.02
40946;BME280;55635;50.264;11.918;2023-02-10T07:09:52;97439.88;;;-1.37;80.50
40946;BME280;55635;50.264;11.918;2023-02-10T07:12:34;97452.25;;;-1.42;80.43
40946;BME280;55635;50.264;11.918;2023-02-10T07:15:15;97430.22;;;-1.54;79.96
40946;BME280;55635;50.264;11.918;2023-02-10T07:17:57;97431.81;;;-1.31;80.41
40946;BME280;55635;50.264;11.918;2023-02-10T07:20:38;97442.22;;;-1.31;80.36
40946;BME280;55635;50.264;11.918;2023-02-10T07:23:19;97459.72;;;-1.16;79.90
40946;BME280;55635;50.264;11.918;2023-02-10T07:26:00;97462.97;;;-1.30;79.29
40946;BME280;55635;50.264;11.918;2023-02-10T07:28:41;97441.09;;;-1.07;78.30
40946;BME280;55635;50.264;11.918;2023-02-10T07:31:23;97449.25;;;-1.33;78.90
40946;BME280;55635;50.264;11.918;2023-02-10T07:34:04;97454.31;;;-1.30;79.14
40946;BME280;55635;50.264;11.918;2023-02-10T07:36:45;97445.97;;;-1.18;79.50
40946;BME280;55635;50.264;11.918;2023-02-10T07:39:26;97447.94;;;-1.23;79.97
40946;BME280;55635;50.264;11.918;2023-02-10T07:42:08;97458.78;;;-0.95;78.16
40946;BME280;55635;50.264;11.918;2023-02-10T07:45:08;97453.66;;;-0.96;78.63
40946;BME280;55635;50.264;11.918;2023-02-10T07:47:50;97468.78;;;-0.86;77.99
40946;BME280;55635;50.264;11.918;2023-02-10T07:50:30;97462.03;;;-0.90;78.66
40946;BME280;55635;50.264;11.918;2023-02-10T07:53:12;97476.78;;;-0.72;77.68
40946;BME280;55635;50.264;11.918;2023-02-10T07:55:53;97470.25;;;-0.99;78.54
40946;BME280;55635;50.264;11.918;2023-02-10T07:58:35;97463.47;;;-1.03;78.53
40946;BME280;55635;50.264;11.918;2023-02-10T08:01:18;97469.06;;;-1.11;78.12
40946;BME280;55635;50.264;11.918;2023-02-10T08:03:59;97478.47;;;-1.08;78.77
40946;BME280;55635;50.264;11.918;2023-02-10T08:06:40;97483.69;;;-0.71;78.12
40946;BME280;55635;50.264;11.918;2023-02-10T08:09:21;97483.41;;;-0.83;78.89
40946;BME280;55635;50.264;11.918;2023-02-10T08:12:03;97486.50;;;-0.57;77.64
40946;BME280;55635;50.264;11.918;2023-02-10T08:14:45;97497.75;;;-0.37;77.03
40946;BME280;55635;50.264;11.918;2023-02-10T08:17:28;97496.88;;;-0.19;76.11
40946;BME280;55635;50.264;11.918;2023-02-10T08:20:11;97492.75;;;-0.06;75.95
40946;BME280;55635;50.264;11.918;2023-02-10T08:22:56;97498.16;;;0.08;74.44
40946;BME280;55635;50.264;11.918;2023-02-10T08:25:37;97483.09;;;-0.04;75.22
40946;BME280;55635;50.264;11.918;2023-02-10T08:28:19;97494.22;;;-0.01;75.72
40946;BME280;55635;50.264;11.918;2023-02-10T08:31:02;97484.66;;;0.00;74.86
40946;BME280;55635;50.264;11.918;2023-02-10T08:33:43;97499.75;;;-0.07;76.32
40946;BME280;55635;50.264;11.918;2023-02-10T08:36:24;97496.13;;;-0.04;75.53
40946;BME280;55635;50.264;11.918;2023-02-10T08:39:05;97503.38;;;0.08;74.80
40946;BME280;55635;50.264;11.918;2023-02-10T08:41:47;97502.50;;;-0.10;75.67
40946;BME280;55635;50.264;11.918;2023-02-10T08:44:28;97499.41;;;-0.18;75.50
40946;BME280;55635;50.264;11.918;2023-02-10T08:47:09;97500.47;;;-0.22;74.83
40946;BME280;55635;50.264;11.918;2023-02-10T08:49:52;97510.63;;;-0.16;75.19
40946;BME280;55635;50.264;11.918;2023-02-10T08:52:33;97497.75;;;-0.02;76.35
40946;BME280;55635;50.264;11.918;2023-02-10T08:55:14;97496.59;;;0.04;75.60
40946;BME280;55635;50.264;11.918;2023-02-10T08:57:55;97495.50;;;-0.09;75.33
40946;BME280;55635;50.264;11.918;2023-02-10T09:00:36;97490.13;;;-0.06;75.22
40946;BME280;55635;50.264;11.918;2023-02-10T09:03:17;97503.41;;;0.07;74.45
40946;BME280;55635;50.264;11.918;2023-02-10T09:05:58;97494.78;;;0.06;74.09
40946;BME280;55635;50.264;11.918;2023-02-10T09:08:39;97505.84;;;0.45;73.49
40946;BME280;55635;50.264;11.918;2023-02-10T09:11:21;97493.38;;;-0.01;73.94
40946;BME280;55635;50.264;11.918;2023-02-10T09:14:04;97504.91;;;0.46;73.44
40946;BME280;55635;50.264;11.918;2023-02-10T09:16:44;97495.69;;;0.57;72.66
40946;BME280;55635;50.264;11.918;2023-02-10T09:19:26;97506.16;;;0.89;71.71
40946;BME280;55635;50.264;11.918;2023-02-10T09:22:08;97506.09;;;0.91;71.29
40946;BME280;55635;50.264;11.918;2023-02-10T09:24:49;97504.44;;;0.55;72.90
40946;BME280;55635;50.264;11.918;2023-02-10T09:27:33;97503.81;;;0.85;71.76
40946;BME280;55635;50.264;11.918;2023-02-10T09:30:14;97496.31;;;0.79;70.71
40946;BME280;55635;50.264;11.918;2023-02-10T09:32:55;97499.59;;;0.82;70.61
40946;BME280;55635;50.264;11.918;2023-02-10T09:35:36;97501.94;;;1.20;70.24
40946;BME280;55635;50.264;11.918;2023-02-10T09:38:17;97510.25;;;1.10;69.48
40946;BME280;55635;50.264;11.918;2023-02-10T09:44:26;97508.63;;;1.25;69.20
40946;BME280;55635;50.264;11.918;2023-02-10T09:47:48;97502.50;;;1.57;69.16
40946;BME280;55635;50.264;11.918;2023-02-10T09:50:59;97506.69;;;1.44;69.25
40946;BME280;55635;50.264;11.918;2023-02-10T09:53:45;97513.63;;;1.45;69.35
40946;BME280;55635;50.264;11.918;2023-02-10T09:56:26;97525.38;;;1.21;71.07
40946;BME280;55635;50.264;11.918;2023-02-10T09:59:16;97525.47;;;1.35;69.79
40946;BME280;55635;50.264;11.918;2023-02-10T10:02:03;97533.44;;;1.49;70.34
40946;BME280;55635;50.264;11.918;2023-02-10T10:04:52;97535.31;;;1.79;69.28
40946;BME280;55635;50.264;11.918;2023-02-10T10:07:36;97526.97;;;1.88;68.22
40946;BME280;55635;50.264;11.918;2023-02-10T10:10:38;97523.09;;;1.95;67.93
40946;BME280;55635;50.264;11.918;2023-02-10T10:13:25;97534.06;;;1.86;68.85
40946;BME280;55635;50.264;11.918;2023-02-10T10:19:28;97547.16;;;2.31;67.50
40946;BME280;55635;50.264;11.918;2023-02-10T10:31:34;97527.06;;;2.61;67.36
40946;BME280;55635;50.264;11.918;2023-02-10T10:34:20;97537.91;;;2.55;67.34
40946;BME280;55635;50.264;11.918;2023-02-10T10:37:14;97527.63;;;3.10;66.00
40946;BME280;55635;50.264;11.918;2023-02-10T10:40:04;97533.09;;;2.78;66.42
40946;BME280;55635;50.264;11.918;2023-02-10T10:42:53;97505.16;;;2.92;66.19
40946;BME280;55635;50.264;11.918;2023-02-10T10:45:48;97518.56;;;3.02;66.63
40946;BME280;55635;50.264;11.918;2023-02-10T10:48:31;97518.38;;;3.05;66.10
40946;BME280;55635;50.264;11.918;2023-02-10T10:51:13;97502.34;;;2.81;67.05
40946;BME280;55635;50.264;11.918;2023-02-10T10:53:57;97509.75;;;3.03;65.91
40946;BME280;55635;50.264;11.918;2023-02-10T10:56:51;97494.84;;;2.75;66.10
40946;BME280;55635;50.264;11.918;2023-02-10T10:59:45;97511.13;;;2.80;66.23
40946;BME280;55635;50.264;11.918;2023-02-10T11:02:26;97506.50;;;2.69;67.36
40946;BME280;55635;50.264;11.918;2023-02-10T11:05:14;97513.13;;;2.61;68.31
40946;BME280;55635;50.264;11.918;2023-02-10T11:07:56;97503.63;;;2.60;67.61
40946;BME280;55635;50.264;11.918;2023-02-10T11:10:49;97509.38;;;3.09;69.02
40946;BME280;55635;50.264;11.918;2023-02-10T11:13:32;97503.28;;;2.80;67.32
40946;BME280;55635;50.264;11.918;2023-02-10T11:16:14;97501.31;;;2.54;67.44
40946;BME280;55635;50.264;11.918;2023-02-10T11:19:01;97486.63;;;2.95;66.48
40946;BME280;55635;50.264;11.918;2023-02-10T11:21:42;97494.13;;;3.44;65.79
40946;BME280;55635;50.264;11.918;2023-02-10T11:24:33;97487.50;;;3.79;65.29
40946;BME280;55635;50.264;11.918;2023-02-10T11:27:15;97496.59;;;3.73;63.58
40946;BME280;55635;50.264;11.918;2023-02-10T11:29:58;97485.63;;;4.47;61.99
40946;BME280;55635;50.264;11.918;2023-02-10T11:32:40;97488.00;;;4.64;61.68
40946;BME280;55635;50.264;11.918;2023-02-10T11:35:22;97474.41;;;4.45;59.84
40946;BME280;55635;50.264;11.918;2023-02-10T11:38:07;97478.31;;;5.40;59.88
40946;BME280;55635;50.264;11.918;2023-02-10T11:41:04;97476.56;;;6.72;56.86
40946;BME280;55635;50.264;11.918;2023-02-10T11:43:47;97470.69;;;6.69;56.16
40946;BME280;55635;50.264;11.918;2023-02-10T11:46:30;97451.91;;;7.06;55.14
40946;BME280;55635;50.264;11.918;2023-02-10T11:49:17;97468.25;;;7.67;53.75
40946;BME280;55635;50.264;11.918;2023-02-10T11:52:00;97467.50;;;7.09;53.47
40946;BME280;55635;50.264;11.918;2023-02-10T11:54:42;97472.19;;;7.73;52.82
40946;BME280;55635;50.264;11.918;2023-02-10T11:58:18;97478.41;;;6.48;52.93
40946;BME280;55635;50.264;11.918;2023-02-10T12:04:55;97475.81;;;8.14;52.15
40946;BME280;55635;50.264;11.918;2023-02-10T12:11:00;97464.72;;;8.43;50.04
40946;BME280;55635;50.264;11.918;2023-02-10T12:17:25;97485.00;;;6.06;54.42
40946;BME280;55635;50.264;11.918;2023-02-10T12:20:33;97490.66;;;5.15;56.86
40946;BME280;55635;50.264;11.918;2023-02-10T12:27:00;97458.84;;;5.43;57.15
40946;BME280;55635;50.264;11.918;2023-02-10T12:36:28;97460.66;;;5.79;55.98
40946;BME280;55635;50.264;11.918;2023-02-10T12:39:26;97458.91;;;6.27;55.72
40946;BME280;55635;50.264;11.918;2023-02-10T12:48:32;97449.84;;;6.77;54.14
40946;BME280;55635;50.264;11.918;2023-02-10T12:51:50;97454.34;;;6.64;54.24
40946;BME280;55635;50.264;11.918;2023-02-10T12:55:00;97450.34;;;6.93;54.08
40946;BME280;55635;50.264;11.918;2023-02-10T12:57:47;97439.06;;;6.80;54.56
40946;BME280;55635;50.264;11.918;2023-02-10T13:00:52;97445.06;;;7.82;52.44
40946;BME280;55635;50.264;11.918;2023-02-10T13:03:38;97415.91;;;8.88;49.98
40946;BME280;55635;50.264;11.918;2023-02-10T13:07:17;97427.88;;;8.62;49.59
40946;BME280;55635;50.264;11.918;2023-02-10T13:13:18;97409.47;;;8.81;48.38
40946;BME280;55635;50.264;11.918;2023-02-10T13:16:15;97406.88;;;8.17;49.24
40946;BME280;55635;50.264;11.918;2023-02-10T13:19:20;97421.13;;;6.85;53.95
40946;BME280;55635;50.264;11.918;2023-02-10T13:26:01;97426.88;;;7.34;52.82
40946;BME280;55635;50.264;11.918;2023-02-10T13:29:25;97419.59;;;5.53;56.06
40946;BME280;55635;50.264;11.918;2023-02-10T13:32:30;97434.66;;;6.11;56.14
40946;BME280;55635;50.264;11.918;2023-02-10T13:35:18;97425.19;;;6.43;55.42
40946;BME280;55635;50.264;11.918;2023-02-10T13:38:13;97425.50;;;5.80;56.52
40946;BME280;55635;50.264;11.918;2023-02-10T13:40:57;97417.19;;;5.49;57.79
40946;BME280;55635;50.264;11.918;2023-02-10T13:43:58;97414.66;;;5.48;58.71
40946;BME280;55635;50.264;11.918;2023-02-10T13:46:39;97415.19;;;4.91;60.77
40946;BME280;55635;50.264;11.918;2023-02-10T13:49:20;97419.06;;;5.47;58.72
40946;BME280;55635;50.264;11.918;2023-02-10T13:52:16;97430.94;;;4.91;60.67
40946;BME280;55635;50.264;11.918;2023-02-10T13:57:59;97443.44;;;4.63;61.74
40946;BME280;55635;50.264;11.918;2023-02-10T14:00:56;97436.19;;;4.66;61.25
40946;BME280;55635;50.264;11.918;2023-02-10T14:03:36;97433.03;;;4.86;61.47
40946;BME280;55635;50.264;11.918;2023-02-10T14:06:17;97433.44;;;4.80;61.76
40946;BME280;55635;50.264;11.918;2023-02-10T14:09:20;97417.47;;;4.96;60.78
40946;BME280;55635;50.264;11.918;2023-02-10T14:12:05;97419.22;;;5.21;59.54
40946;BME280;55635;50.264;11.918;2023-02-10T14:15:31;97420.94;;;5.58;58.60
40946;BME280;55635;50.264;11.918;2023-02-10T14:18:30;97412.16;;;5.34;58.81
40946;BME280;55635;50.264;11.918;2023-02-10T14:21:15;97415.22;;;5.28;59.30
40946;BME280;55635;50.264;11.918;2023-02-10T14:23:58;97414.09;;;4.44;61.45
40946;BME280;55635;50.264;11.918;2023-02-10T14:26:44;97428.78;;;3.67;63.55
40946;BME280;55635;50.264;11.918;2023-02-10T14:29:26;97426.75;;;3.58;65.21
40946;BME280;55635;50.264;11.918;2023-02-10T14:32:14;97431.50;;;3.25;66.18
40946;BME280;55635;50.264;11.918;2023-02-10T14:35:01;97429.56;;;2.86;67.54
40946;BME280;55635;50.264;11.918;2023-02-10T14:37:51;97419.75;;;3.18;66.29
40946;BME280;55635;50.264;11.918;2023-02-10T14:40:32;97435.25;;;3.07;67.67
40946;BME280;55635;50.264;11.918;2023-02-10T14:43:14;97435.84;;;2.98;67.49
40946;BME280;55635;50.264;11.918;2023-02-10T14:45:59;97434.16;;;3.11;67.72
40946;BME280;55635;50.264;11.918;2023-02-10T14:48:41;97448.81;;;3.42;66.55
40946;BME280;55635;50.264;11.918;2023-02-10T14:51:24;97439.66;;;3.20;67.13
40946;BME280;55635;50.264;11.918;2023-02-10T14:54:26;97446.31;;;3.12;67.48
40946;BME280;55635;50.264;11.918;2023-02-10T14:57:12;97435.38;;;3.05;67.22
40946;BME280;55635;50.264;11.918;2023-02-10T14:59:59;97431.13;;;3.03;67.22
40946;BME280;55635;50.264;11.918;2023-02-10T15:02:48;97433.03;;;3.01;67.14
40946;BME280;55635;50.264;11.918;2023-02-10T15:05:43;97425.53;;;3.23;67.11
40946;BME280;55635;50.264;11.918;2023-02-10T15:08:39;97436.56;;;3.69;65.50
40946;BME280;55635;50.264;11.918;2023-02-10T15:11:33;97444.25;;;3.58;65.59
40946;BME280;55635;50.264;11.918;2023-02-10T15:15:05;97416.34;;;3.30;66.46
40946;BME280;55635;50.264;11.918;2023-02-10T15:18:23;97417.50;;;2.98;67.33
40946;BME280;55635;50.264;11.918;2023-02-10T15:24:26;97420.47;;;3.20;66.94
40946;BME280;55635;50.264;11.918;2023-02-10T15:27:15;97409.13;;;3.34;66.83
40946;BME280;55635;50.264;11.918;2023-02-10T15:30:07;97407.91;;;3.25;66.33
40946;BME280;55635;50.264;11.918;2023-02-10T15:32:56;97428.41;;;3.33;66.00
40946;BME280;55635;50.264;11.918;2023-02-10T15:35:37;97418.53;;;2.95;66.43
40946;BME280;55635;50.264;11.918;2023-02-10T15:38:18;97416.19;;;2.77;68.02
40946;BME280;55635;50.264;11.918;2023-02-10T15:40:59;97414.88;;;2.69;68.65
40946;BME280;55635;50.264;11.918;2023-02-10T15:43:47;97422.47;;;2.74;68.09
40946;BME280;55635;50.264;11.918;2023-02-10T15:46:30;97408.50;;;2.45;68.59
40946;BME280;55635;50.264;11.918;2023-02-10T15:49:17;97434.00;;;2.42;69.77
40946;BME280;55635;50.264;11.918;2023-02-10T15:51:59;97436.47;;;2.59;69.14